Time;durP1;ratioP1;P1;durP2;ratioP2;P2;SDS_P1;SDS_P2;PMS_P1;PMS_P2;Temp;Humidity;BMP_temperature;BMP_pressure;BME280_temperature;BME280_humidity;BME280_pressure;Samples;Min_cycle;Max_cycle;Signal;HPM_P1;HPM_P2
2023/12/22 00:08:43;;;;;;;0.30;0.08;;;3.20;95.00;;;;;;21049781;28;20043;-59
2023/12/22 00:18:45;;;;;;;0.10;0.10;;;3.00;95.20;;;;;;21069711;28;20039;-59
2023/12/22 00:28:47;;;;;;;0.30;0.10;;;2.80;95.20;;;;;;21020347;28;20498;-59
2023/12/22 00:38:49;;;;;;;0.40;0.10;;;3.00;94.60;;;;;;20975361;28;20090;-59
2023/12/22 00:48:54;;;;;;;0.10;0.10;;;3.40;94.10;;;;;;20996725;28;20074;-57
2023/12/22 00:58:56;;;;;;;0.10;0.05;;;3.70;93.50;;;;;;21031670;28;20020;-58
2023/12/22 01:08:58;;;;;;;0.20;0.10;;;3.80;93.30;;;;;;20974652;28;20036;-59
2023/12/22 01:19:00;;;;;;;0.40;0.10;;;4.10;92.80;;;;;;21062197;28;20036;-59
2023/12/22 01:29:01;;;;;;;0.00;0.00;;;5.10;86.80;;;;;;21042126;28;20048;-56
2023/12/22 01:39:04;;;;;;;0.65;0.10;;;6.00;85.70;;;;;;21043837;28;20504;-60
2023/12/22 01:49:08;;;;;;;0.35;0.10;;;5.30;88.10;;;;;;20992025;28;20401;-48
2023/12/22 01:59:11;;;;;;;0.22;0.00;;;4.80;89.30;;;;;;21036748;28;20414;-60
2023/12/22 02:09:13;;;;;;;1.88;0.10;;;4.70;88.30;;;;;;21039403;28;20032;-54
2023/12/22 02:19:40;;;;;;;0.00;0.00;;;4.50;87.10;;;;;;21069972;28;20043;-48
2023/12/22 02:29:47;;;;;;;0.10;0.00;;;5.80;81.10;;;;;;21000219;28;20122;-50
2023/12/22 02:39:52;;;;;;;1.58;0.10;;;5.80;81.50;;;;;;20976995;28;20032;-54
2023/12/22 02:49:54;;;;;;;0.50;0.10;;;5.70;79.30;;;;;;21045884;28;20040;-45
2023/12/22 02:59:57;;;;;;;0.38;0.10;;;5.80;81.30;;;;;;21045424;28;20036;-48
2023/12/22 03:09:59;;;;;;;0.40;0.10;;;5.30;81.40;;;;;;20981668;28;20040;-46
2023/12/22 03:20:01;;;;;;;0.57;0.00;;;5.60;81.50;;;;;;21026080;28;20027;-61
2023/12/22 03:30:07;;;;;;;0.30;0.10;;;5.90;80.30;;;;;;21060607;28;20040;-52
2023/12/22 03:40:09;;;;;;;0.03;0.00;;;6.20;80.60;;;;;;21032304;28;20031;-57
2023/12/22 03:50:11;;;;;;;1.35;0.10;;;6.00;81.10;;;;;;20983534;28;20029;-61
2023/12/22 04:00:14;;;;;;;0.20;0.00;;;5.40;81.90;;;;;;20978512;28;20025;-49
2023/12/22 04:10:20;;;;;;;0.20;0.00;;;5.60;80.70;;;;;;20968834;28;20032;-61
2023/12/22 04:20:21;;;;;;;0.10;0.00;;;6.50;79.40;;;;;;20940115;28;20371;-61
2023/12/22 04:30:23;;;;;;;0.52;0.00;;;6.20;80.20;;;;;;20954685;28;20048;-61
2023/12/22 04:40:25;;;;;;;0.73;0.00;;;5.90;80.00;;;;;;20978156;28;20025;-62
2023/12/22 04:50:27;;;;;;;0.20;0.00;;;6.80;78.20;;;;;;20959898;28;20033;-51
2023/12/22 05:00:28;;;;;;;0.30;0.10;;;7.30;77.00;;;;;;20967633;28;20116;-62
2023/12/22 05:10:30;;;;;;;0.95;0.10;;;6.90;78.10;;;;;;20991982;28;20037;-60
2023/12/22 05:20:32;;;;;;;0.15;0.00;;;5.80;81.20;;;;;;20990740;28;20097;-50
2023/12/22 05:30:36;;;;;;;0.50;0.20;;;4.80;84.10;;;;;;20990438;28;20039;-50
2023/12/22 05:40:38;;;;;;;0.20;0.10;;;4.60;84.40;;;;;;20989398;28;20033;-47
2023/12/22 05:50:39;;;;;;;0.77;0.10;;;5.30;82.60;;;;;;20989227;28;20043;-52
2023/12/22 06:00:41;;;;;;;0.00;0.00;;;5.00;83.10;;;;;;20979999;28;20037;-60
2023/12/22 06:10:44;;;;;;;1.45;0.20;;;5.40;83.40;;;;;;20987639;28;20052;-61
2023/12/22 06:20:46;;;;;;;0.10;0.00;;;4.30;85.80;;;;;;20978678;28;20448;-53
2023/12/22 06:30:47;;;;;;;0.55;0.10;;;3.80;87.80;;;;;;20970285;28;20078;-52
2023/12/22 06:40:50;;;;;;;0.45;0.10;;;3.60;88.70;;;;;;20981207;28;20036;-49
2023/12/22 06:50:52;;;;;;;0.22;0.03;;;3.20;89.70;;;;;;20980039;28;20038;-59
2023/12/22 07:00:54;;;;;;;0.03;0.00;;;2.80;90.60;;;;;;20960048;28;20532;-48
2023/12/22 07:10:55;;;;;;;0.10;0.00;;;2.40;91.80;;;;;;20974212;28;20082;-60
2023/12/22 07:21:00;;;;;;;0.15;0.00;;;2.40;91.10;;;;;;20970404;28;20045;-46
2023/12/22 07:31:02;;;;;;;1.00;0.00;;;2.90;91.10;;;;;;20961006;28;20040;-49
2023/12/22 07:41:04;;;;;;;0.10;0.00;;;2.90;91.30;;;;;;20963830;28;20055;-55
2023/12/22 07:51:06;;;;;;;0.00;0.00;;;2.90;92.30;;;;;;20967706;28;20540;-58
2023/12/22 08:01:08;;;;;;;0.38;0.00;;;4.10;91.30;;;;;;20967174;28;20033;-53
2023/12/22 08:11:10;;;;;;;0.70;0.00;;;5.20;87.40;;;;;;20954206;28;20036;-50
2023/12/22 08:21:17;;;;;;;0.35;0.00;;;5.90;87.30;;;;;;20962263;28;20400;-58
2023/12/22 08:31:19;;;;;;;0.55;0.10;;;6.40;87.70;;;;;;20970475;28;20036;-58
2023/12/22 08:41:21;;;;;;;0.50;0.10;;;7.30;83.90;;;;;;20979518;28;20031;-48
2023/12/22 08:51:23;;;;;;;0.10;0.10;;;8.10;84.10;;;;;;20976424;28;20044;-48
2023/12/22 09:01:25;;;;;;;0.30;0.20;;;8.70;85.00;;;;;;20988702;28;20434;-46
2023/12/22 09:11:27;;;;;;;0.77;0.20;;;9.10;83.30;;;;;;20971625;28;20047;-52
2023/12/22 09:21:29;;;;;;;0.10;0.10;;;9.20;81.90;;;;;;20970281;28;20044;-55
2023/12/22 09:31:32;;;;;;;0.30;0.10;;;9.30;82.10;;;;;;20982503;28;20072;-57
2023/12/22 09:41:34;;;;;;;1.90;0.10;;;9.70;79.30;;;;;;20980899;28;20489;-50
2023/12/22 09:51:37;;;;;;;0.32;0.10;;;9.60;82.10;;;;;;20972867;28;20389;-50
2023/12/22 10:01:47;;;;;;;0.47;0.10;;;10.30;79.40;;;;;;20975752;28;20032;-52
2023/12/22 10:11:53;;;;;;;0.27;0.10;;;10.70;78.10;;;;;;20978586;28;20040;-51
2023/12/22 10:21:55;;;;;;;0.50;0.00;;;10.80;76.70;;;;;;20969586;28;20040;-53
2023/12/22 10:31:56;;;;;;;0.00;0.00;;;10.90;75.80;;;;;;20964303;28;20033;-48
2023/12/22 10:41:59;;;;;;;0.10;0.00;;;11.30;76.20;;;;;;20983581;28;20122;-51
2023/12/22 10:52:01;;;;;;;0.57;0.20;;;12.00;76.70;;;;;;20990661;28;20036;-47
2023/12/22 11:02:04;;;;;;;0.22;0.15;;;12.20;77.50;;;;;;20966883;28;20458;-49
2023/12/22 11:12:07;;;;;;;0.95;0.10;;;12.10;75.60;;;;;;20970114;28;20039;-50
2023/12/22 11:22:18;;;;;;;0.57;0.20;;;11.90;74.80;;;;;;20994746;28;20044;-51
2023/12/22 11:32:20;;;;;;;0.80;0.20;;;11.90;74.10;;;;;;20990517;28;20056;-51
2023/12/22 11:42:25;;;;;;;0.88;0.25;;;12.10;74.40;;;;;;20984044;28;20036;-48
2023/12/22 11:52:30;;;;;;;0.93;0.30;;;12.40;76.10;;;;;;20964175;28;20078;-57
2023/12/22 12:02:36;;;;;;;1.15;0.50;;;12.90;74.00;;;;;;20966173;28;20037;-47
2023/12/22 12:12:38;;;;;;;0.93;0.40;;;12.40;75.50;;;;;;20971938;28;20036;-50
2023/12/22 12:22:46;;;;;;;1.63;0.40;;;11.30;77.50;;;;;;20971040;28;20049;-56
2023/12/22 12:32:49;;;;;;;1.50;0.40;;;11.00;77.70;;;;;;20995772;28;20051;-49
2023/12/22 12:42:50;;;;;;;1.33;0.30;;;11.10;76.00;;;;;;20990716;28;20409;-48
2023/12/22 12:52:55;;;;;;;0.25;0.15;;;11.40;79.10;;;;;;20985213;28;20122;-57
2023/12/22 13:03:05;;;;;;;0.20;0.10;;;11.50;73.20;;;;;;20981088;28;20037;-49
2023/12/22 13:13:07;;;;;;;0.20;0.10;;;10.30;76.00;;;;;;20983715;28;20090;-48
2023/12/22 13:23:09;;;;;;;0.30;0.10;;;9.90;73.60;;;;;;20975174;28;20407;-50
2023/12/22 13:33:10;;;;;;;0.40;0.17;;;9.70;74.20;;;;;;20982377;28;20767;-48
2023/12/22 13:43:12;;;;;;;0.65;0.30;;;9.30;75.70;;;;;;20975724;28;20574;-48
2023/12/22 13:53:14;;;;;;;0.60;0.40;;;8.90;80.90;;;;;;20980888;28;20033;-48
2023/12/22 14:03:16;;;;;;;1.30;0.20;;;8.50;79.70;;;;;;20971738;28;20055;-60
2023/12/22 14:13:19;;;;;;;1.40;0.20;;;8.20;80.10;;;;;;20979505;28;20158;-46
2023/12/22 14:23:21;;;;;;;1.25;0.43;;;8.00;80.80;;;;;;20972370;28;20048;-51
2023/12/22 14:33:23;;;;;;;0.40;0.15;;;8.00;79.90;;;;;;20967807;28;20371;-50
2023/12/22 14:43:25;;;;;;;0.60;0.10;;;7.90;78.90;;;;;;20977632;28;20037;-55
2023/12/22 14:53:28;;;;;;;0.30;0.00;;;7.80;76.20;;;;;;20986810;28;20432;-54
2023/12/22 15:03:29;;;;;;;0.10;0.00;;;7.70;76.90;;;;;;20981895;28;20035;-56
2023/12/22 15:13:31;;;;;;;0.82;0.00;;;7.30;75.30;;;;;;20986790;28;20032;-59
2023/12/22 15:23:33;;;;;;;0.15;0.15;;;6.70;79.20;;;;;;20984467;28;20048;-60
2023/12/22 15:33:35;;;;;;;0.28;0.10;;;5.80;83.80;;;;;;20991273;28;20331;-59
2023/12/22 15:43:37;;;;;;;0.45;0.00;;;5.30;84.10;;;;;;20986304;28;20036;-50
2023/12/22 15:53:43;;;;;;;2.50;0.10;;;4.70;86.50;;;;;;20980660;28;20105;-47
2023/12/22 16:03:50;;;;;;;1.55;0.10;;;4.60;89.40;;;;;;20989416;28;20110;-58
2023/12/22 16:13:55;;;;;;;0.55;0.10;;;4.50;89.40;;;;;;21013328;28;20037;-49
2023/12/22 16:23:56;;;;;;;0.30;0.10;;;4.00;90.10;;;;;;20936718;28;20044;-57
2023/12/22 16:34:02;;;;;;;0.73;0.10;;;3.60;90.70;;;;;;20978528;28;20099;-58
2023/12/22 16:44:04;;;;;;;0.70;0.10;;;3.00;92.20;;;;;;20914056;28;20035;-49
2023/12/22 16:54:06;;;;;;;0.45;0.10;;;2.70;92.60;;;;;;20965232;28;20428;-48
2023/12/22 17:04:07;;;;;;;0.08;0.00;;;2.60;92.80;;;;;;20993494;28;20078;-55
2023/12/22 17:14:10;;;;;;;0.82;0.10;;;2.40;93.20;;;;;;20958341;28;20041;-58
2023/12/22 17:24:12;;;;;;;0.20;0.03;;;2.20;93.70;;;;;;20967463;28;20041;-58
2023/12/22 17:34:15;;;;;;;1.10;0.10;;;2.30;93.70;;;;;;20993493;28;20041;-58
2023/12/22 17:44:17;;;;;;;0.13;0.00;;;2.40;93.60;;;;;;20953412;28;20041;-58
2023/12/22 17:54:20;;;;;;;0.17;0.03;;;2.30;93.80;;;;;;20983705;28;20036;-48
2023/12/22 18:04:22;;;;;;;0.10;0.03;;;2.10;93.90;;;;;;20921348;28;20537;-54
2023/12/22 18:14:24;;;;;;;0.05;0.00;;;2.20;93.90;;;;;;20945227;28;20055;-57
2023/12/22 18:24:26;;;;;;;0.22;0.10;;;1.90;94.40;;;;;;20981456;28;20049;-54
2023/12/22 18:34:28;;;;;;;0.13;0.00;;;1.80;94.60;;;;;;20964854;28;20044;-46
2023/12/22 18:44:29;;;;;;;0.52;0.00;;;2.10;94.00;;;;;;20956306;28;20036;-45
2023/12/22 18:54:31;;;;;;;1.08;0.10;;;2.20;93.90;;;;;;20978822;28;20025;-52
2023/12/22 19:04:33;;;;;;;1.48;0.10;;;2.10;94.20;;;;;;20986701;28;20610;-49
2023/12/22 19:14:35;;;;;;;1.20;0.00;;;1.90;95.00;;;;;;20948679;28;20057;-57
2023/12/22 19:24:39;;;;;;;0.17;0.03;;;1.90;94.50;;;;;;20977275;28;20095;-58
2023/12/22 19:34:45;;;;;;;0.15;0.05;;;2.00;94.70;;;;;;20984602;28;20044;-46
2023/12/22 19:44:47;;;;;;;0.50;0.10;;;2.10;94.50;;;;;;20954881;28;20046;-51
2023/12/22 19:54:48;;;;;;;0.10;0.00;;;2.10;94.50;;;;;;20975617;28;20033;-57
2023/12/22 20:04:50;;;;;;;1.65;0.00;;;2.20;94.20;;;;;;20929841;28;20087;-44
2023/12/22 20:14:52;;;;;;;0.10;0.00;;;2.30;94.00;;;;;;20942400;28;20033;-58
2023/12/22 20:24:54;;;;;;;0.00;0.00;;;2.30;93.60;;;;;;20950463;28;20041;-56
2023/12/22 20:34:56;;;;;;;0.22;0.00;;;2.00;94.20;;;;;;20988704;28;20041;-58
2023/12/22 20:44:59;;;;;;;0.15;0.00;;;2.10;94.10;;;;;;20937644;28;20471;-48
2023/12/22 20:55:01;;;;;;;0.10;0.00;;;2.20;93.70;;;;;;20985862;28;20086;-58
2023/12/22 21:05:03;;;;;;;0.05;0.00;;;2.30;93.70;;;;;;20954898;28;20432;-58
2023/12/22 21:15:09;;;;;;;0.10;0.00;;;2.60;92.70;;;;;;20945345;28;20033;-49
2023/12/22 21:25:11;;;;;;;0.30;0.00;;;2.80;92.80;;;;;;20970673;28;20688;-58
2023/12/22 21:35:16;;;;;;;0.30;0.00;;;2.90;92.60;;;;;;20975845;28;20036;-47
2023/12/22 21:45:20;;;;;;;0.28;0.00;;;3.00;91.80;;;;;;20976219;28;20032;-58
2023/12/22 21:55:22;;;;;;;0.00;0.00;;;3.40;91.30;;;;;;20945216;28;20470;-58
2023/12/22 22:05:27;;;;;;;0.00;0.00;;;3.20;91.90;;;;;;20928684;28;20028;-47
2023/12/22 22:15:29;;;;;;;0.10;0.00;;;3.20;91.30;;;;;;20958340;28;20028;-59
2023/12/22 22:25:32;;;;;;;0.10;0.00;;;4.70;87.90;;;;;;20947491;28;20053;-59
2023/12/22 22:35:35;;;;;;;0.00;0.00;;;5.70;83.70;;;;;;20989009;28;20029;-59
2023/12/22 22:45:43;;;;;;;0.10;0.00;;;6.70;79.30;;;;;;20967259;28;20032;-59
2023/12/22 22:55:45;;;;;;;0.93;0.00;;;6.50;79.30;;;;;;20978754;28;20036;-58
2023/12/22 23:05:46;;;;;;;0.30;0.00;;;6.00;80.60;;;;;;20892602;28;20029;-50
2023/12/22 23:15:48;;;;;;;0.00;0.00;;;6.10;81.00;;;;;;20953393;28;20036;-46
2023/12/22 23:25:50;;;;;;;0.00;0.00;;;6.70;78.20;;;;;;21023874;28;20493;-60
2023/12/22 23:35:52;;;;;;;0.00;0.00;;;7.30;77.40;;;;;;21063805;28;20097;-47
2023/12/22 23:45:54;;;;;;;0.10;0.00;;;5.40;81.30;;;;;;21044228;28;20036;-46
2023/12/22 23:55:56;;;;;;;0.08;0.00;;;5.30;82.90;;;;;;21055482;28;20051;-52
